sensor_id;sensor_type;location;lat;lon;timestamp;P1;durP1;ratioP1;P2;durP2;ratioP2
41885;SDS011;27567;43.084;25.616;2023-01-15T00:00:04;40.58;;;18.33;;
41885;SDS011;27567;43.084;25.616;2023-01-15T00:02:48;36.90;;;18.73;;
41885;SDS011;27567;43.084;25.616;2023-01-15T00:05:35;41.17;;;18.20;;
41885;SDS011;27567;43.084;25.616;2023-01-15T00:08:19;46.92;;;21.95;;
41885;SDS011;27567;43.084;25.616;2023-01-15T00:11:03;46.28;;;22.75;;
41885;SDS011;27567;43.084;25.616;2023-01-15T00:13:47;41.65;;;21.33;;
41885;SDS011;27567;43.084;25.616;2023-01-15T00:16:31;41.83;;;21.83;;
41885;SDS011;27567;43.084;25.616;2023-01-15T00:19:15;44.67;;;21.00;;
41885;SDS011;27567;43.084;25.616;2023-01-15T00:21:59;44.85;;;20.75;;
41885;SDS011;27567;43.084;25.616;2023-01-15T00:24:43;60.20;;;27.35;;
41885;SDS011;27567;43.084;25.616;2023-01-15T00:27:46;50.42;;;25.63;;
41885;SDS011;27567;43.084;25.616;2023-01-15T00:30:30;50.83;;;24.38;;
41885;SDS011;27567;43.084;25.616;2023-01-15T00:33:14;49.72;;;24.15;;
41885;SDS011;27567;43.084;25.616;2023-01-15T00:35:58;67.40;;;30.90;;
41885;SDS011;27567;43.084;25.616;2023-01-15T00:38:42;55.72;;;25.50;;
41885;SDS011;27567;43.084;25.616;2023-01-15T00:41:25;76.80;;;25.73;;
41885;SDS011;27567;43.084;25.616;2023-01-15T00:44:09;47.67;;;23.35;;
41885;SDS011;27567;43.084;25.616;2023-01-15T00:46:53;54.08;;;24.35;;
41885;SDS011;27567;43.084;25.616;2023-01-15T00:49:40;49.63;;;23.48;;
41885;SDS011;27567;43.084;25.616;2023-01-15T00:52:24;50.53;;;23.98;;
41885;SDS011;27567;43.084;25.616;2023-01-15T00:55:08;41.13;;;20.63;;
41885;SDS011;27567;43.084;25.616;2023-01-15T00:57:52;51.10;;;22.73;;
41885;SDS011;27567;43.084;25.616;2023-01-15T01:00:36;47.67;;;20.52;;
41885;SDS011;27567;43.084;25.616;2023-01-15T01:03:20;45.40;;;20.52;;
41885;SDS011;27567;43.084;25.616;2023-01-15T01:06:04;46.45;;;21.85;;
41885;SDS011;27567;43.084;25.616;2023-01-15T01:08:48;47.95;;;22.55;;
41885;SDS011;27567;43.084;25.616;2023-01-15T01:11:32;49.17;;;22.90;;
41885;SDS011;27567;43.084;25.616;2023-01-15T01:14:17;52.70;;;22.95;;
41885;SDS011;27567;43.084;25.616;2023-01-15T01:17:01;47.45;;;21.33;;
41885;SDS011;27567;43.084;25.616;2023-01-15T01:19:45;42.88;;;20.17;;
41885;SDS011;27567;43.084;25.616;2023-01-15T01:22:29;37.50;;;18.15;;
41885;SDS011;27567;43.084;25.616;2023-01-15T01:25:13;39.75;;;19.88;;
41885;SDS011;27567;43.084;25.616;2023-01-15T01:27:57;44.05;;;21.80;;
41885;SDS011;27567;43.084;25.616;2023-01-15T01:30:41;40.75;;;20.42;;
41885;SDS011;27567;43.084;25.616;2023-01-15T01:33:24;37.67;;;18.88;;
41885;SDS011;27567;43.084;25.616;2023-01-15T01:36:08;42.70;;;19.85;;
41885;SDS011;27567;43.084;25.616;2023-01-15T01:38:52;38.88;;;18.73;;
41885;SDS011;27567;43.084;25.616;2023-01-15T01:41:36;42.20;;;19.85;;
41885;SDS011;27567;43.084;25.616;2023-01-15T01:47:22;44.17;;;20.73;;
41885;SDS011;27567;43.084;25.616;2023-01-15T01:50:09;45.72;;;19.67;;
41885;SDS011;27567;43.084;25.616;2023-01-15T01:52:55;41.33;;;20.40;;
41885;SDS011;27567;43.084;25.616;2023-01-15T01:55:40;42.42;;;19.92;;
41885;SDS011;27567;43.084;25.616;2023-01-15T01:58:26;45.83;;;21.35;;
41885;SDS011;27567;43.084;25.616;2023-01-15T02:01:10;40.53;;;18.77;;
41885;SDS011;27567;43.084;25.616;2023-01-15T02:03:54;38.20;;;17.98;;
41885;SDS011;27567;43.084;25.616;2023-01-15T02:06:39;29.38;;;15.50;;
41885;SDS011;27567;43.084;25.616;2023-01-15T02:09:23;34.53;;;14.90;;
41885;SDS011;27567;43.084;25.616;2023-01-15T02:12:10;27.77;;;13.30;;
41885;SDS011;27567;43.084;25.616;2023-01-15T02:15:12;27.15;;;14.18;;
41885;SDS011;27567;43.084;25.616;2023-01-15T02:18:09;32.90;;;14.48;;
41885;SDS011;27567;43.084;25.616;2023-01-15T02:33:14;28.77;;;15.05;;
41885;SDS011;27567;43.084;25.616;2023-01-15T02:35:39;28.17;;;13.88;;
41885;SDS011;27567;43.084;25.616;2023-01-15T02:38:24;27.35;;;14.48;;
41885;SDS011;27567;43.084;25.616;2023-01-15T02:41:09;33.15;;;15.15;;
41885;SDS011;27567;43.084;25.616;2023-01-15T02:43:58;31.47;;;15.07;;
41885;SDS011;27567;43.084;25.616;2023-01-15T02:46:44;42.80;;;17.92;;
41885;SDS011;27567;43.084;25.616;2023-01-15T02:49:28;35.08;;;15.48;;
41885;SDS011;27567;43.084;25.616;2023-01-15T02:52:17;35.58;;;16.02;;
41885;SDS011;27567;43.084;25.616;2023-01-15T02:55:04;36.17;;;17.45;;
41885;SDS011;27567;43.084;25.616;2023-01-15T02:57:50;40.05;;;16.50;;
41885;SDS011;27567;43.084;25.616;2023-01-15T03:00:36;37.33;;;17.52;;
41885;SDS011;27567;43.084;25.616;2023-01-15T03:03:38;39.40;;;19.30;;
41885;SDS011;27567;43.084;25.616;2023-01-15T03:09:09;45.78;;;18.88;;
41885;SDS011;27567;43.084;25.616;2023-01-15T03:17:49;36.22;;;16.35;;
41885;SDS011;27567;43.084;25.616;2023-01-15T03:20:36;38.63;;;17.55;;
41885;SDS011;27567;43.084;25.616;2023-01-15T03:23:22;32.80;;;15.25;;
41885;SDS011;27567;43.084;25.616;2023-01-15T03:26:06;33.47;;;14.57;;
41885;SDS011;27567;43.084;25.616;2023-01-15T03:28:50;35.20;;;16.48;;
41885;SDS011;27567;43.084;25.616;2023-01-15T03:31:35;32.72;;;15.40;;
41885;SDS011;27567;43.084;25.616;2023-01-15T03:34:20;24.85;;;11.98;;
41885;SDS011;27567;43.084;25.616;2023-01-15T03:37:04;29.35;;;15.00;;
41885;SDS011;27567;43.084;25.616;2023-01-15T03:39:48;23.52;;;11.40;;
41885;SDS011;27567;43.084;25.616;2023-01-15T03:45:27;29.08;;;12.73;;
41885;SDS011;27567;43.084;25.616;2023-01-15T03:51:03;26.23;;;13.00;;
41885;SDS011;27567;43.084;25.616;2023-01-15T03:53:51;26.83;;;12.50;;
41885;SDS011;27567;43.084;25.616;2023-01-15T03:56:48;22.45;;;10.18;;
41885;SDS011;27567;43.084;25.616;2023-01-15T03:59:38;19.98;;;10.43;;
41885;SDS011;27567;43.084;25.616;2023-01-15T04:02:25;23.92;;;11.70;;
41885;SDS011;27567;43.084;25.616;2023-01-15T04:05:10;22.88;;;11.13;;
41885;SDS011;27567;43.084;25.616;2023-01-15T04:07:54;24.83;;;11.98;;
41885;SDS011;27567;43.084;25.616;2023-01-15T04:13:55;29.58;;;12.80;;
41885;SDS011;27567;43.084;25.616;2023-01-15T04:16:39;32.17;;;14.13;;
41885;SDS011;27567;43.084;25.616;2023-01-15T04:19:23;33.63;;;15.38;;
41885;SDS011;27567;43.084;25.616;2023-01-15T04:22:08;33.47;;;16.20;;
41885;SDS011;27567;43.084;25.616;2023-01-15T04:24:52;35.67;;;16.55;;
41885;SDS011;27567;43.084;25.616;2023-01-15T04:27:37;62.08;;;25.77;;
41885;SDS011;27567;43.084;25.616;2023-01-15T04:30:21;54.67;;;25.83;;
41885;SDS011;27567;43.084;25.616;2023-01-15T04:33:05;42.72;;;21.20;;
41885;SDS011;27567;43.084;25.616;2023-01-15T04:35:49;40.83;;;19.13;;
41885;SDS011;27567;43.084;25.616;2023-01-15T04:38:33;35.65;;;17.05;;
41885;SDS011;27567;43.084;25.616;2023-01-15T04:41:19;35.97;;;17.02;;
41885;SDS011;27567;43.084;25.616;2023-01-15T04:44:21;31.33;;;14.57;;
41885;SDS011;27567;43.084;25.616;2023-01-15T04:47:10;32.58;;;15.32;;
41885;SDS011;27567;43.084;25.616;2023-01-15T04:49:54;32.47;;;16.05;;
41885;SDS011;27567;43.084;25.616;2023-01-15T04:52:38;33.33;;;16.05;;
41885;SDS011;27567;43.084;25.616;2023-01-15T04:55:22;33.30;;;16.52;;
41885;SDS011;27567;43.084;25.616;2023-01-15T04:58:06;27.40;;;13.75;;
41885;SDS011;27567;43.084;25.616;2023-01-15T05:00:50;31.58;;;13.38;;
41885;SDS011;27567;43.084;25.616;2023-01-15T05:03:33;87.10;;;30.27;;
41885;SDS011;27567;43.084;25.616;2023-01-15T05:06:17;41.38;;;18.63;;
41885;SDS011;27567;43.084;25.616;2023-01-15T05:09:02;34.42;;;15.15;;
41885;SDS011;27567;43.084;25.616;2023-01-15T05:11:46;30.48;;;13.93;;
41885;SDS011;27567;43.084;25.616;2023-01-15T05:14:30;30.17;;;13.57;;
41885;SDS011;27567;43.084;25.616;2023-01-15T05:17:14;27.35;;;12.80;;
41885;SDS011;27567;43.084;25.616;2023-01-15T05:19:58;28.27;;;14.02;;
41885;SDS011;27567;43.084;25.616;2023-01-15T05:22:42;28.15;;;14.07;;
41885;SDS011;27567;43.084;25.616;2023-01-15T05:25:26;31.48;;;13.93;;
41885;SDS011;27567;43.084;25.616;2023-01-15T05:28:10;28.58;;;13.57;;
41885;SDS011;27567;43.084;25.616;2023-01-15T05:30:54;44.70;;;19.88;;
41885;SDS011;27567;43.084;25.616;2023-01-15T05:33:38;44.17;;;19.65;;
41885;SDS011;27567;43.084;25.616;2023-01-15T05:36:26;58.40;;;26.67;;
41885;SDS011;27567;43.084;25.616;2023-01-15T05:39:10;103.70;;;46.35;;
41885;SDS011;27567;43.084;25.616;2023-01-15T05:41:54;88.90;;;38.15;;
41885;SDS011;27567;43.084;25.616;2023-01-15T05:44:38;94.40;;;40.90;;
41885;SDS011;27567;43.084;25.616;2023-01-15T05:47:22;82.55;;;36.83;;
41885;SDS011;27567;43.084;25.616;2023-01-15T05:50:06;63.22;;;27.63;;
41885;SDS011;27567;43.084;25.616;2023-01-15T05:52:50;49.28;;;24.30;;
41885;SDS011;27567;43.084;25.616;2023-01-15T05:55:34;56.83;;;25.27;;
41885;SDS011;27567;43.084;25.616;2023-01-15T05:58:18;59.70;;;27.23;;
41885;SDS011;27567;43.084;25.616;2023-01-15T06:01:08;49.83;;;23.00;;
41885;SDS011;27567;43.084;25.616;2023-01-15T06:03:56;52.00;;;22.83;;
41885;SDS011;27567;43.084;25.616;2023-01-15T06:06:40;57.55;;;27.48;;
41885;SDS011;27567;43.084;25.616;2023-01-15T06:09:25;57.67;;;26.50;;
41885;SDS011;27567;43.084;25.616;2023-01-15T06:12:10;54.63;;;26.63;;
41885;SDS011;27567;43.084;25.616;2023-01-15T06:14:54;54.78;;;27.65;;
41885;SDS011;27567;43.084;25.616;2023-01-15T06:17:38;61.50;;;30.42;;
41885;SDS011;27567;43.084;25.616;2023-01-15T06:20:22;56.38;;;29.20;;
41885;SDS011;27567;43.084;25.616;2023-01-15T06:23:06;50.65;;;22.00;;
41885;SDS011;27567;43.084;25.616;2023-01-15T06:25:50;50.05;;;22.17;;
41885;SDS011;27567;43.084;25.616;2023-01-15T06:28:34;51.42;;;24.02;;
41885;SDS011;27567;43.084;25.616;2023-01-15T06:31:18;48.88;;;25.10;;
41885;SDS011;27567;43.084;25.616;2023-01-15T06:34:03;50.78;;;23.30;;
41885;SDS011;27567;43.084;25.616;2023-01-15T06:36:47;48.15;;;22.88;;
41885;SDS011;27567;43.084;25.616;2023-01-15T06:39:31;47.33;;;21.65;;
41885;SDS011;27567;43.084;25.616;2023-01-15T06:42:15;41.75;;;19.60;;
41885;SDS011;27567;43.084;25.616;2023-01-15T06:45:18;32.05;;;15.88;;
41885;SDS011;27567;43.084;25.616;2023-01-15T06:48:21;38.40;;;17.50;;
41885;SDS011;27567;43.084;25.616;2023-01-15T06:51:05;33.78;;;15.23;;
41885;SDS011;27567;43.084;25.616;2023-01-15T06:53:49;25.55;;;12.90;;
41885;SDS011;27567;43.084;25.616;2023-01-15T06:56:33;26.63;;;13.70;;
41885;SDS011;27567;43.084;25.616;2023-01-15T06:59:17;23.27;;;13.43;;
41885;SDS011;27567;43.084;25.616;2023-01-15T07:02:01;26.85;;;14.20;;
41885;SDS011;27567;43.084;25.616;2023-01-15T07:04:45;25.58;;;14.07;;
41885;SDS011;27567;43.084;25.616;2023-01-15T07:07:30;24.17;;;12.98;;
41885;SDS011;27567;43.084;25.616;2023-01-15T07:10:14;25.05;;;13.30;;
41885;SDS011;27567;43.084;25.616;2023-01-15T07:12:57;25.63;;;13.93;;
41885;SDS011;27567;43.084;25.616;2023-01-15T07:15:42;27.55;;;15.25;;
41885;SDS011;27567;43.084;25.616;2023-01-15T07:18:26;27.00;;;12.90;;
41885;SDS011;27567;43.084;25.616;2023-01-15T07:21:11;19.75;;;10.05;;
41885;SDS011;27567;43.084;25.616;2023-01-15T07:23:58;19.38;;;9.65;;
41885;SDS011;27567;43.084;25.616;2023-01-15T07:26:42;19.48;;;10.25;;
41885;SDS011;27567;43.084;25.616;2023-01-15T07:29:28;18.95;;;10.60;;
41885;SDS011;27567;43.084;25.616;2023-01-15T07:32:11;18.23;;;9.10;;
41885;SDS011;27567;43.084;25.616;2023-01-15T07:34:56;17.80;;;9.13;;
41885;SDS011;27567;43.084;25.616;2023-01-15T07:37:40;19.25;;;9.43;;
41885;SDS011;27567;43.084;25.616;2023-01-15T07:40:24;21.67;;;10.77;;
41885;SDS011;27567;43.084;25.616;2023-01-15T07:43:08;18.15;;;9.90;;
41885;SDS011;27567;43.084;25.616;2023-01-15T07:46:11;20.58;;;10.48;;
41885;SDS011;27567;43.084;25.616;2023-01-15T07:49:14;24.58;;;13.45;;
41885;SDS011;27567;43.084;25.616;2023-01-15T07:52:18;28.83;;;15.38;;
41885;SDS011;27567;43.084;25.616;2023-01-15T07:55:02;25.60;;;12.75;;
41885;SDS011;27567;43.084;25.616;2023-01-15T07:57:46;22.33;;;12.55;;
41885;SDS011;27567;43.084;25.616;2023-01-15T08:00:30;24.80;;;12.98;;
41885;SDS011;27567;43.084;25.616;2023-01-15T08:03:14;29.98;;;16.92;;
41885;SDS011;27567;43.084;25.616;2023-01-15T08:05:58;27.70;;;14.38;;
41885;SDS011;27567;43.084;25.616;2023-01-15T08:08:42;23.38;;;12.30;;
41885;SDS011;27567;43.084;25.616;2023-01-15T08:11:26;22.23;;;12.70;;
41885;SDS011;27567;43.084;25.616;2023-01-15T08:14:29;18.35;;;10.95;;
41885;SDS011;27567;43.084;25.616;2023-01-15T08:17:32;19.92;;;11.50;;
41885;SDS011;27567;43.084;25.616;2023-01-15T08:20:17;19.88;;;11.13;;
41885;SDS011;27567;43.084;25.616;2023-01-15T08:23:02;19.65;;;11.30;;
41885;SDS011;27567;43.084;25.616;2023-01-15T08:25:46;18.75;;;11.20;;
41885;SDS011;27567;43.084;25.616;2023-01-15T08:28:30;22.25;;;11.23;;
41885;SDS011;27567;43.084;25.616;2023-01-15T08:31:14;21.98;;;11.93;;
41885;SDS011;27567;43.084;25.616;2023-01-15T08:33:58;26.40;;;15.00;;
41885;SDS011;27567;43.084;25.616;2023-01-15T08:36:42;22.38;;;12.35;;
41885;SDS011;27567;43.084;25.616;2023-01-15T08:39:26;20.92;;;9.68;;
41885;SDS011;27567;43.084;25.616;2023-01-15T08:42:10;16.90;;;9.15;;
41885;SDS011;27567;43.084;25.616;2023-01-15T08:44:53;12.60;;;7.95;;
41885;SDS011;27567;43.084;25.616;2023-01-15T08:47:37;17.65;;;9.23;;
41885;SDS011;27567;43.084;25.616;2023-01-15T08:50:21;16.63;;;8.73;;
41885;SDS011;27567;43.084;25.616;2023-01-15T08:53:05;14.20;;;7.72;;
41885;SDS011;27567;43.084;25.616;2023-01-15T08:55:49;13.73;;;7.75;;
41885;SDS011;27567;43.084;25.616;2023-01-15T08:58:33;12.05;;;7.30;;
41885;SDS011;27567;43.084;25.616;2023-01-15T09:01:18;15.02;;;8.30;;
41885;SDS011;27567;43.084;25.616;2023-01-15T09:04:01;15.43;;;8.25;;
41885;SDS011;27567;43.084;25.616;2023-01-15T09:06:45;13.68;;;7.95;;
41885;SDS011;27567;43.084;25.616;2023-01-15T09:09:30;12.38;;;7.65;;
41885;SDS011;27567;43.084;25.616;2023-01-15T09:12:14;15.27;;;8.95;;
41885;SDS011;27567;43.084;25.616;2023-01-15T09:14:58;13.75;;;8.18;;
41885;SDS011;27567;43.084;25.616;2023-01-15T09:17:44;15.02;;;8.02;;
41885;SDS011;27567;43.084;25.616;2023-01-15T09:20:28;12.13;;;7.70;;
41885;SDS011;27567;43.084;25.616;2023-01-15T09:23:12;15.90;;;8.00;;
41885;SDS011;27567;43.084;25.616;2023-01-15T09:25:57;16.38;;;9.15;;
41885;SDS011;27567;43.084;25.616;2023-01-15T09:28:41;14.60;;;8.48;;
41885;SDS011;27567;43.084;25.616;2023-01-15T09:31:25;14.88;;;8.13;;
41885;SDS011;27567;43.084;25.616;2023-01-15T09:34:09;14.52;;;7.65;;
41885;SDS011;27567;43.084;25.616;2023-01-15T09:36:54;18.08;;;7.47;;
41885;SDS011;27567;43.084;25.616;2023-01-15T09:39:38;12.98;;;7.45;;
41885;SDS011;27567;43.084;25.616;2023-01-15T09:45:14;16.58;;;9.43;;
41885;SDS011;27567;43.084;25.616;2023-01-15T09:51:21;12.48;;;6.82;;
41885;SDS011;27567;43.084;25.616;2023-01-15T09:54:16;8.48;;;5.50;;
41885;SDS011;27567;43.084;25.616;2023-01-15T09:57:03;11.43;;;5.10;;
41885;SDS011;27567;43.084;25.616;2023-01-15T09:59:48;12.35;;;6.75;;
41885;SDS011;27567;43.084;25.616;2023-01-15T10:02:39;10.20;;;6.18;;
41885;SDS011;27567;43.084;25.616;2023-01-15T10:05:30;10.93;;;5.80;;
41885;SDS011;27567;43.084;25.616;2023-01-15T10:08:28;11.25;;;6.07;;
41885;SDS011;27567;43.084;25.616;2023-01-15T10:14:04;18.08;;;7.18;;
41885;SDS011;27567;43.084;25.616;2023-01-15T10:16:48;15.43;;;8.02;;
41885;SDS011;27567;43.084;25.616;2023-01-15T10:19:32;11.70;;;6.82;;
41885;SDS011;27567;43.084;25.616;2023-01-15T10:22:40;11.40;;;5.68;;
41885;SDS011;27567;43.084;25.616;2023-01-15T10:25:22;9.30;;;5.43;;
41885;SDS011;27567;43.084;25.616;2023-01-15T10:28:14;9.73;;;5.82;;
41885;SDS011;27567;43.084;25.616;2023-01-15T10:31:02;11.35;;;6.63;;
41885;SDS011;27567;43.084;25.616;2023-01-15T10:36:53;12.15;;;6.15;;
41885;SDS011;27567;43.084;25.616;2023-01-15T10:45:33;13.70;;;7.72;;
41885;SDS011;27567;43.084;25.616;2023-01-15T10:51:13;15.63;;;7.15;;
41885;SDS011;27567;43.084;25.616;2023-01-15T10:59:57;10.20;;;5.88;;
41885;SDS011;27567;43.084;25.616;2023-01-15T11:02:43;9.35;;;6.20;;
41885;SDS011;27567;43.084;25.616;2023-01-15T11:05:27;14.63;;;7.25;;
41885;SDS011;27567;43.084;25.616;2023-01-15T11:08:23;11.25;;;5.90;;
41885;SDS011;27567;43.084;25.616;2023-01-15T11:14:00;7.60;;;3.92;;
41885;SDS011;27567;43.084;25.616;2023-01-15T11:17:07;8.75;;;4.40;;
41885;SDS011;27567;43.084;25.616;2023-01-15T11:23:08;7.97;;;4.47;;
41885;SDS011;27567;43.084;25.616;2023-01-15T11:25:56;16.60;;;7.70;;
41885;SDS011;27567;43.084;25.616;2023-01-15T11:28:42;23.55;;;10.90;;
41885;SDS011;27567;43.084;25.616;2023-01-15T11:31:36;9.95;;;5.47;;
41885;SDS011;27567;43.084;25.616;2023-01-15T11:34:20;7.65;;;3.85;;
41885;SDS011;27567;43.084;25.616;2023-01-15T11:37:04;5.50;;;3.78;;
41885;SDS011;27567;43.084;25.616;2023-01-15T11:40:31;6.22;;;3.88;;
41885;SDS011;27567;43.084;25.616;2023-01-15T11:42:56;3.97;;;2.90;;
41885;SDS011;27567;43.084;25.616;2023-01-15T11:45:58;6.68;;;4.40;;
41885;SDS011;27567;43.084;25.616;2023-01-15T11:49:07;7.57;;;3.35;;
41885;SDS011;27567;43.084;25.616;2023-01-15T11:52:15;7.00;;;4.68;;
41885;SDS011;27567;43.084;25.616;2023-01-15T11:55:00;7.78;;;4.70;;
41885;SDS011;27567;43.084;25.616;2023-01-15T11:57:45;11.40;;;5.45;;
41885;SDS011;27567;43.084;25.616;2023-01-15T12:00:31;7.93;;;4.28;;
41885;SDS011;27567;43.084;25.616;2023-01-15T12:03:17;8.15;;;5.07;;
41885;SDS011;27567;43.084;25.616;2023-01-15T12:06:03;7.93;;;5.70;;
41885;SDS011;27567;43.084;25.616;2023-01-15T12:27:26;8.43;;;5.72;;
41885;SDS011;27567;43.084;25.616;2023-01-15T12:33:36;31.73;;;6.25;;
41885;SDS011;27567;43.084;25.616;2023-01-15T12:41:30;10.13;;;6.78;;
41885;SDS011;27567;43.084;25.616;2023-01-15T12:47:43;8.90;;;4.63;;
41885;SDS011;27567;43.084;25.616;2023-01-15T12:50:31;8.75;;;5.15;;
41885;SDS011;27567;43.084;25.616;2023-01-15T12:59:33;11.30;;;6.72;;
41885;SDS011;27567;43.084;25.616;2023-01-15T13:02:25;9.98;;;6.05;;
41885;SDS011;27567;43.084;25.616;2023-01-15T13:05:25;9.18;;;6.00;;
41885;SDS011;27567;43.084;25.616;2023-01-15T13:08:18;10.10;;;6.25;;
41885;SDS011;27567;43.084;25.616;2023-01-15T13:11:03;9.55;;;5.72;;
41885;SDS011;27567;43.084;25.616;2023-01-15T13:13:47;8.55;;;5.55;;
41885;SDS011;27567;43.084;25.616;2023-01-15T13:19:58;9.57;;;6.00;;
41885;SDS011;27567;43.084;25.616;2023-01-15T13:29:07;7.60;;;4.45;;
41885;SDS011;27567;43.084;25.616;2023-01-15T13:37:45;9.40;;;5.10;;
41885;SDS011;27567;43.084;25.616;2023-01-15T13:40:30;11.48;;;6.30;;
41885;SDS011;27567;43.084;25.616;2023-01-15T13:43:23;9.30;;;5.50;;
41885;SDS011;27567;43.084;25.616;2023-01-15T13:46:11;10.23;;;5.78;;
41885;SDS011;27567;43.084;25.616;2023-01-15T13:48:55;9.05;;;5.07;;
41885;SDS011;27567;43.084;25.616;2023-01-15T13:51:39;10.55;;;6.10;;
41885;SDS011;27567;43.084;25.616;2023-01-15T13:54:26;12.43;;;6.18;;
41885;SDS011;27567;43.084;25.616;2023-01-15T13:57:23;14.50;;;6.38;;
41885;SDS011;27567;43.084;25.616;2023-01-15T14:00:29;10.20;;;4.78;;
41885;SDS011;27567;43.084;25.616;2023-01-15T14:09:38;9.90;;;5.78;;
41885;SDS011;27567;43.084;25.616;2023-01-15T14:15:54;7.95;;;4.53;;
41885;SDS011;27567;43.084;25.616;2023-01-15T14:21:27;8.07;;;4.70;;
41885;SDS011;27567;43.084;25.616;2023-01-15T14:27:14;7.65;;;5.20;;
41885;SDS011;27567;43.084;25.616;2023-01-15T14:35:39;11.35;;;5.63;;
41885;SDS011;27567;43.084;25.616;2023-01-15T14:38:26;13.82;;;5.50;;
41885;SDS011;27567;43.084;25.616;2023-01-15T14:41:10;7.75;;;4.45;;
41885;SDS011;27567;43.084;25.616;2023-01-15T14:43:56;9.93;;;5.10;;
41885;SDS011;27567;43.084;25.616;2023-01-15T14:46:41;10.00;;;5.45;;
41885;SDS011;27567;43.084;25.616;2023-01-15T14:49:29;8.70;;;5.88;;
41885;SDS011;27567;43.084;25.616;2023-01-15T14:52:23;12.35;;;5.97;;
41885;SDS011;27567;43.084;25.616;2023-01-15T14:55:07;13.15;;;7.97;;
41885;SDS011;27567;43.084;25.616;2023-01-15T14:57:55;15.70;;;6.78;;
41885;SDS011;27567;43.084;25.616;2023-01-15T15:00:41;13.38;;;6.72;;
41885;SDS011;27567;43.084;25.616;2023-01-15T15:03:35;14.13;;;6.35;;
41885;SDS011;27567;43.084;25.616;2023-01-15T15:06:20;15.57;;;8.18;;
41885;SDS011;27567;43.084;25.616;2023-01-15T15:09:04;17.50;;;8.55;;
41885;SDS011;27567;43.084;25.616;2023-01-15T15:11:49;16.73;;;7.95;;
41885;SDS011;27567;43.084;25.616;2023-01-15T15:23:47;16.58;;;8.55;;
41885;SDS011;27567;43.084;25.616;2023-01-15T15:26:35;17.77;;;9.27;;
41885;SDS011;27567;43.084;25.616;2023-01-15T15:29:19;13.90;;;7.30;;
41885;SDS011;27567;43.084;25.616;2023-01-15T15:32:04;13.10;;;7.60;;
41885;SDS011;27567;43.084;25.616;2023-01-15T15:34:49;19.02;;;8.20;;
41885;SDS011;27567;43.084;25.616;2023-01-15T15:37:36;10.82;;;5.50;;
41885;SDS011;27567;43.084;25.616;2023-01-15T15:40:29;13.23;;;6.45;;
41885;SDS011;27567;43.084;25.616;2023-01-15T15:43:19;11.65;;;5.65;;
41885;SDS011;27567;43.084;25.616;2023-01-15T15:46:25;15.88;;;6.30;;
41885;SDS011;27567;43.084;25.616;2023-01-15T15:49:36;11.45;;;6.18;;
41885;SDS011;27567;43.084;25.616;2023-01-15T15:52:20;23.50;;;9.45;;
41885;SDS011;27567;43.084;25.616;2023-01-15T15:55:13;17.13;;;9.80;;
41885;SDS011;27567;43.084;25.616;2023-01-15T16:00:41;15.73;;;7.78;;
41885;SDS011;27567;43.084;25.616;2023-01-15T16:03:26;18.95;;;8.02;;
41885;SDS011;27567;43.084;25.616;2023-01-15T16:06:23;16.17;;;8.40;;
41885;SDS011;27567;43.084;25.616;2023-01-15T16:09:10;156.38;;;58.97;;
41885;SDS011;27567;43.084;25.616;2023-01-15T16:11:54;84.82;;;38.03;;
41885;SDS011;27567;43.084;25.616;2023-01-15T16:14:49;23.98;;;11.85;;
41885;SDS011;27567;43.084;25.616;2023-01-15T16:17:34;12.95;;;7.07;;
41885;SDS011;27567;43.084;25.616;2023-01-15T16:20:19;10.98;;;5.57;;
41885;SDS011;27567;43.084;25.616;2023-01-15T16:23:04;11.23;;;5.88;;
41885;SDS011;27567;43.084;25.616;2023-01-15T16:25:59;15.55;;;6.88;;
41885;SDS011;27567;43.084;25.616;2023-01-15T16:28:51;12.07;;;6.60;;
41885;SDS011;27567;43.084;25.616;2023-01-15T16:31:36;10.13;;;5.93;;
41885;SDS011;27567;43.084;25.616;2023-01-15T16:34:22;31.98;;;7.55;;
41885;SDS011;27567;43.084;25.616;2023-01-15T16:37:15;12.45;;;6.63;;
41885;SDS011;27567;43.084;25.616;2023-01-15T16:40:04;18.00;;;8.65;;
41885;SDS011;27567;43.084;25.616;2023-01-15T16:42:58;21.02;;;9.25;;
41885;SDS011;27567;43.084;25.616;2023-01-15T16:46:17;20.23;;;9.23;;
41885;SDS011;27567;43.084;25.616;2023-01-15T16:51:58;21.55;;;11.18;;
41885;SDS011;27567;43.084;25.616;2023-01-15T16:54:42;25.95;;;11.50;;
41885;SDS011;27567;43.084;25.616;2023-01-15T16:57:30;14.88;;;8.07;;
41885;SDS011;27567;43.084;25.616;2023-01-15T17:00:25;14.52;;;8.40;;
41885;SDS011;27567;43.084;25.616;2023-01-15T17:03:18;15.77;;;8.05;;
41885;SDS011;27567;43.084;25.616;2023-01-15T17:06:10;12.45;;;6.53;;
41885;SDS011;27567;43.084;25.616;2023-01-15T17:08:54;11.73;;;6.90;;
41885;SDS011;27567;43.084;25.616;2023-01-15T17:11:39;13.68;;;7.43;;
41885;SDS011;27567;43.084;25.616;2023-01-15T17:14:24;18.67;;;9.43;;
41885;SDS011;27567;43.084;25.616;2023-01-15T17:19:58;23.33;;;11.25;;
41885;SDS011;27567;43.084;25.616;2023-01-15T17:22:43;18.92;;;10.10;;
41885;SDS011;27567;43.084;25.616;2023-01-15T17:25:28;27.50;;;13.13;;
41885;SDS011;27567;43.084;25.616;2023-01-15T17:28:14;18.60;;;10.13;;
41885;SDS011;27567;43.084;25.616;2023-01-15T17:30:59;16.92;;;7.55;;
41885;SDS011;27567;43.084;25.616;2023-01-15T17:33:43;13.88;;;7.72;;
41885;SDS011;27567;43.084;25.616;2023-01-15T17:36:27;17.88;;;9.13;;
41885;SDS011;27567;43.084;25.616;2023-01-15T17:39:12;17.13;;;8.98;;
41885;SDS011;27567;43.084;25.616;2023-01-15T17:41:57;21.33;;;10.23;;
41885;SDS011;27567;43.084;25.616;2023-01-15T17:44:41;14.13;;;6.45;;
41885;SDS011;27567;43.084;25.616;2023-01-15T17:47:25;23.85;;;10.25;;
41885;SDS011;27567;43.084;25.616;2023-01-15T17:50:09;17.48;;;7.68;;
41885;SDS011;27567;43.084;25.616;2023-01-15T17:52:53;13.15;;;6.50;;
41885;SDS011;27567;43.084;25.616;2023-01-15T17:55:37;27.70;;;12.55;;
41885;SDS011;27567;43.084;25.616;2023-01-15T17:58:40;22.70;;;11.43;;
41885;SDS011;27567;43.084;25.616;2023-01-15T18:01:44;29.88;;;11.07;;
41885;SDS011;27567;43.084;25.616;2023-01-15T18:04:48;15.57;;;8.60;;
41885;SDS011;27567;43.084;25.616;2023-01-15T18:07:51;15.27;;;7.57;;
41885;SDS011;27567;43.084;25.616;2023-01-15T18:10:39;18.45;;;8.20;;
41885;SDS011;27567;43.084;25.616;2023-01-15T18:13:23;14.32;;;6.93;;
41885;SDS011;27567;43.084;25.616;2023-01-15T18:16:07;14.23;;;7.60;;
41885;SDS011;27567;43.084;25.616;2023-01-15T18:18:51;10.30;;;6.38;;
41885;SDS011;27567;43.084;25.616;2023-01-15T18:21:37;38.88;;;16.80;;
41885;SDS011;27567;43.084;25.616;2023-01-15T18:24:21;21.58;;;9.13;;
41885;SDS011;27567;43.084;25.616;2023-01-15T18:27:06;27.67;;;11.40;;
41885;SDS011;27567;43.084;25.616;2023-01-15T18:29:50;21.02;;;10.15;;
41885;SDS011;27567;43.084;25.616;2023-01-15T18:32:33;23.33;;;11.20;;
41885;SDS011;27567;43.084;25.616;2023-01-15T18:35:17;33.72;;;15.98;;
41885;SDS011;27567;43.084;25.616;2023-01-15T18:38:02;14.57;;;8.35;;
41885;SDS011;27567;43.084;25.616;2023-01-15T18:40:46;25.23;;;11.48;;
41885;SDS011;27567;43.084;25.616;2023-01-15T18:43:30;14.60;;;7.80;;
41885;SDS011;27567;43.084;25.616;2023-01-15T18:46:33;27.15;;;11.10;;